This is the latest recevied weather packets stored in our database for station/object N3DOU-1. If no packets are shown the sender has not sent any weather packets the latest 10 day(s).
| Time | Temp. | Humidity | Pressure | Rain* | Wind** | Luminosity | Snow |
|---|---|---|---|---|---|---|---|
| 1778132483 | 15° C | 84% | 1010.7 hPa | 2.03 mm | - | - | - |
| 1778131583 | 16.11° C | 78% | 1010.7 hPa | 0.51 mm | - | - | - |
| 1778130684 | 16.67° C | 76% | 1010 hPa | 0 mm | - | - | - |
| 1778129782 | 16.67° C | 75% | 1010.2 hPa | 0 mm | - | - | - |
| 1778128883 | 17.22° C | 74% | 1009.7 hPa | 0 mm | - | - | - |
| 1778127983 | 17.22° C | 77% | 1009.5 hPa | 0 mm | - | - | - |
| 1778127087 | 17.78° C | 76% | 1009.4 hPa | 0 mm | - | - | - |
| 1778126184 | 18.33° C | 76% | 1009.7 hPa | 0 mm | - | - | - |
| 1778125284 | 18.89° C | 76% | 1009.6 hPa | 0 mm | - | - | - |
| 1778124383 | 18.89° C | 79% | 1009.2 hPa | 0 mm | - | - | - |
| 1778123483 | 18.89° C | 81% | 1009.1 hPa | 0 mm | - | - | - |
| 1778122583 | 18.89° C | 81% | 1009 hPa | 0 mm | - | - | - |
| 1778121683 | 18.89° C | 82% | 1008.7 hPa | 0 mm | - | - | - |
| 1778120786 | 18.89° C | 81% | 1008.9 hPa | 0 mm | - | - | - |
| 1778118084 | 18.89° C | 81% | 1009.1 hPa | 0 mm | - | - | - |
| 1778117183 | 18.89° C | 81% | 1009 hPa | 0 mm | - | - | - |
| 1778116282 | 18.89° C | 80% | 1008.9 hPa | 0 mm | - | - | - |
| 1778115382 | 18.89° C | 80% | 1008.9 hPa | 0 mm | - | - | - |
| 1778114483 | 18.89° C | 80% | 1008.6 hPa | 0 mm | - | - | - |
| 1778113583 | 19.44° C | 80% | 1008.7 hPa | 0 mm | - | - | - |
| 1778112684 | 19.44° C | 79% | 1008.8 hPa | 0 mm | - | - | - |
| 1778111785 | 19.44° C | 79% | 1008.4 hPa | 0 mm | - | - | - |
| 1778110884 | 20° C | 78% | 1008.3 hPa | 0 mm | - | - | - |
| 1778109983 | 20.56° C | 77% | 1008.1 hPa | 0 mm | - | - | - |
| 1778109085 | 20.56° C | 77% | 1007.9 hPa | 0 mm | - | - | - |
* Rain latest hour (hover to see other rain measurements)
** Current wind speed in m/s (hover to see current wind gust speed)